Arnots Addition, Pennsylvania
Current Conditions -  °F | °C
As of 7:55 AM on Saturday 22 Nov 2014 (Local Time) from KHZL Reporting Station
Clear Clear  
Wind Chill: -5°   Ceiling: Unl
Heat Index: -5°   Visibility: 10mi
Dew Point: -12°   Wind: 0mph
Humidity: 59%   Direction: NA
Pressure: 30.39"   Gusts: NA
Location:  40.7406°N, 76.2241°W
Report Text: KHZL 221255Z AUTO 00000KT 10SM CLR M05/M12 A3039 RMK AO2
Loading
Personal Weather Stations






























Interactive Weather Map New forecast layout! Learn more

10-Day Weather Forecast

Advertisements
Track Severe Weather on mobile